createdAt,value
2022-09-13T00:00:40.140Z,98882.28
2022-09-13T00:01:42.438Z,98885.47
2022-09-13T00:02:44.843Z,98886.03
2022-09-13T00:03:47.059Z,98887.16
2022-09-13T00:04:49.313Z,98885.84
2022-09-13T00:05:52.020Z,98885.09
2022-09-13T00:06:54.318Z,98887.75
2022-09-13T00:07:56.731Z,98885.97
2022-09-13T00:09:00.584Z,98891.25
2022-09-13T00:10:03.013Z,98891.41
2022-09-13T00:11:05.985Z,98892.75
2022-09-13T00:12:08.365Z,98888.19
2022-09-13T00:13:12.745Z,98879.91
2022-09-13T00:14:15.165Z,98890.09
2022-09-13T00:15:17.692Z,98893.28
2022-09-13T00:16:22.634Z,98890.00
2022-09-13T00:17:26.640Z,98883.75
2022-09-13T00:18:28.947Z,98886.31
2022-09-13T00:19:31.166Z,98883.28
2022-09-13T00:20:33.488Z,98868.59
2022-09-13T00:21:35.967Z,98877.34
2022-09-13T00:22:38.256Z,98877.19
2022-09-13T00:23:43.325Z,98875.28
2022-09-13T00:24:45.594Z,98880.19
2022-09-13T00:25:47.865Z,98878.22
2022-09-13T00:26:50.077Z,98875.78
2022-09-13T00:27:52.292Z,98872.00
2022-09-13T00:28:57.684Z,98863.59
2022-09-13T00:30:00.202Z,98861.06
2022-09-13T00:31:04.794Z,98852.28
2022-09-13T00:32:07.068Z,98851.25
2022-09-13T00:33:09.316Z,98847.41
2022-09-13T00:34:11.702Z,98849.28
2022-09-13T00:35:14.114Z,98846.34
2022-09-13T00:36:16.909Z,98841.38
2022-09-13T00:37:19.136Z,98839.28
2022-09-13T00:38:21.380Z,98847.72
2022-09-13T00:39:23.597Z,98836.94
2022-09-13T00:40:26.113Z,98842.91
2022-09-13T00:41:28.610Z,98840.06
2022-09-13T00:42:35.090Z,98842.41
2022-09-13T00:43:46.143Z,98842.41
2022-09-13T00:45:02.377Z,98838.63
2022-09-13T00:46:05.559Z,98838.00
2022-09-13T00:47:07.942Z,98844.09
2022-09-13T00:48:19.804Z,98839.78
2022-09-13T00:49:33.927Z,98844.97
2022-09-13T00:50:50.107Z,98848.16
2022-09-13T00:51:58.478Z,98846.38
2022-09-13T00:53:25.660Z,98852.19
2022-09-13T00:54:31.762Z,98849.56
2022-09-13T00:55:47.139Z,98848.91
2022-09-13T00:56:58.836Z,98849.59
2022-09-13T00:58:06.350Z,98853.06
2022-09-13T00:59:15.941Z,98859.78
2022-09-13T01:00:19.597Z,98850.34
2022-09-13T01:01:26.397Z,98862.19
2022-09-13T01:02:29.315Z,98857.28
2022-09-13T01:03:35.110Z,98862.94
2022-09-13T01:04:38.550Z,98859.16
2022-09-13T01:05:50.578Z,98868.19
2022-09-13T01:06:56.026Z,98867.16
2022-09-13T01:08:00.081Z,98867.66
2022-09-13T01:09:03.842Z,98864.34
2022-09-13T01:10:07.702Z,98852.47
2022-09-13T01:11:14.292Z,98857.94
2022-09-13T01:12:34.353Z,98854.34
2022-09-13T01:13:36.819Z,98858.69
2022-09-13T01:14:39.304Z,98850.13
2022-09-13T01:15:41.729Z,98855.91
2022-09-13T01:16:47.731Z,98856.19
2022-09-13T01:17:52.914Z,98849.97
2022-09-13T01:18:55.135Z,98857.53
2022-09-13T01:19:58.665Z,98854.38
2022-09-13T01:21:36.459Z,98869.41
2022-09-13T01:23:11.026Z,98858.50
2022-09-13T01:25:00.927Z,98865.06
2022-09-13T01:26:17.844Z,98856.41
2022-09-13T01:27:35.872Z,98859.06
2022-09-13T01:29:06.484Z,98854.22
2022-09-13T01:30:20.655Z,98847.66
2022-09-13T01:31:35.095Z,98851.91
2022-09-13T01:33:06.539Z,98856.13
2022-09-13T01:34:36.384Z,98854.28
2022-09-13T01:35:56.725Z,98854.84
2022-09-13T01:37:17.451Z,98864.81
2022-09-13T01:39:04.634Z,98856.91
2022-09-13T01:40:18.003Z,98857.56
2022-09-13T01:41:47.749Z,98858.91
2022-09-13T01:43:27.727Z,98861.44
2022-09-13T01:45:03.838Z,98862.75
2022-09-13T01:46:13.503Z,98867.25
2022-09-13T01:47:27.446Z,98869.22
2022-09-13T01:49:10.733Z,98862.09
2022-09-13T01:50:27.816Z,98863.00
2022-09-13T01:51:36.813Z,98867.75
2022-09-13T01:52:49.439Z,98878.47
2022-09-13T01:54:10.019Z,98867.06
2022-09-13T01:55:42.720Z,98860.66
2022-09-13T01:56:57.982Z,98863.94
2022-09-13T01:58:05.826Z,98870.72
2022-09-13T01:59:27.360Z,98873.81
2022-09-13T02:00:34.985Z,98882.38
2022-09-13T02:01:48.359Z,98883.47
2022-09-13T02:03:29.823Z,98876.91
2022-09-13T02:04:43.192Z,98867.97
2022-09-13T02:05:54.416Z,98874.56
2022-09-13T02:07:09.458Z,98873.41
2022-09-13T02:08:47.400Z,98873.03
2022-09-13T02:09:56.685Z,98870.31
2022-09-13T02:11:08.161Z,98872.75
2022-09-13T02:12:16.982Z,98879.44
2022-09-13T02:13:25.696Z,98876.66
2022-09-13T02:14:36.416Z,98868.47
2022-09-13T02:15:43.855Z,98872.72
2022-09-13T02:16:53.440Z,98863.56
2022-09-13T02:18:06.479Z,98874.75
2022-09-13T02:19:18.919Z,98866.84
2022-09-13T02:20:29.056Z,98869.13
2022-09-13T02:21:35.875Z,98877.75
2022-09-13T02:22:46.239Z,98883.06
2022-09-13T02:23:53.367Z,98878.16
2022-09-13T02:24:58.903Z,98879.91
2022-09-13T02:26:04.301Z,98887.47
2022-09-13T02:27:14.494Z,98890.97
2022-09-13T02:28:23.997Z,98886.16
2022-09-13T02:29:28.895Z,98882.91
2022-09-13T02:30:34.249Z,98885.03
2022-09-13T02:32:16.908Z,98882.09
2022-09-13T02:33:26.384Z,98889.97
2022-09-13T02:34:39.978Z,98871.97
2022-09-13T02:35:52.311Z,98888.09
2022-09-13T02:36:56.275Z,98874.06
2022-09-13T02:38:04.113Z,98878.25
2022-09-13T02:39:13.409Z,98873.41
2022-09-13T02:40:22.636Z,98871.97
2022-09-13T02:41:50.499Z,98873.16
2022-09-13T02:43:08.700Z,98879.34
2022-09-13T02:44:37.511Z,98871.09
2022-09-13T02:45:51.150Z,98870.81
2022-09-13T02:47:08.402Z,98861.16
2022-09-13T02:48:28.499Z,98858.41
2022-09-13T02:49:54.951Z,98852.69
2022-09-13T02:51:04.392Z,98860.88
2022-09-13T02:52:19.198Z,98848.53
2022-09-13T02:53:45.666Z,98856.19
2022-09-13T02:55:16.079Z,98840.63
2022-09-13T02:56:41.687Z,98834.16
2022-09-13T02:58:06.789Z,98841.50
2022-09-13T02:59:17.878Z,98844.38
2022-09-13T03:00:20.255Z,98847.19
2022-09-13T03:01:22.774Z,98840.06
2022-09-13T03:02:29.285Z,98846.00
2022-09-13T03:03:31.685Z,98840.63
2022-09-13T03:04:34.511Z,98845.16
2022-09-13T03:05:36.765Z,98843.28
2022-09-13T03:06:40.587Z,98851.88
2022-09-13T03:07:42.869Z,98852.63
2022-09-13T03:08:45.199Z,98854.22
2022-09-13T03:10:00.813Z,98872.50
2022-09-13T03:11:05.919Z,98872.41
2022-09-13T03:12:29.964Z,98871.06
2022-09-13T03:14:05.588Z,98876.31
2022-09-13T03:15:07.955Z,98867.56
2022-09-13T03:16:32.724Z,98872.09
2022-09-13T03:18:13.567Z,98870.94
2022-09-13T03:19:49.009Z,98874.59
2022-09-13T03:21:23.809Z,98874.09
2022-09-13T03:22:53.522Z,98864.66
2022-09-13T03:23:55.687Z,98859.13
2022-09-13T03:25:03.256Z,98863.69
2022-09-13T03:26:31.720Z,98853.91
2022-09-13T03:27:51.857Z,98853.41
2022-09-13T03:29:29.616Z,98843.13
2022-09-13T03:30:37.192Z,98842.41
2022-09-13T03:31:45.156Z,98837.00
2022-09-13T03:33:01.852Z,98843.63
2022-09-13T03:34:18.372Z,98834.69
2022-09-13T03:35:42.800Z,98838.47
2022-09-13T03:37:11.689Z,98829.91
2022-09-13T03:38:13.846Z,98832.66
2022-09-13T03:39:36.849Z,98830.13
2022-09-13T03:40:51.606Z,98833.84
2022-09-13T03:41:59.956Z,98832.31
2022-09-13T03:43:24.572Z,98830.47
2022-09-13T03:44:29.482Z,98833.25
2022-09-13T03:45:37.378Z,98828.31
2022-09-13T03:46:48.686Z,98820.94
2022-09-13T03:47:52.155Z,98826.91
2022-09-13T03:48:55.721Z,98822.22
2022-09-13T03:49:59.544Z,98816.25
2022-09-13T03:51:01.866Z,98829.34
2022-09-13T03:52:04.235Z,98824.91
2022-09-13T03:53:12.088Z,98821.94
2022-09-13T03:54:21.293Z,98814.47
2022-09-13T03:55:23.905Z,98821.19
2022-09-13T03:56:26.069Z,98814.81
2022-09-13T03:57:28.680Z,98816.19
2022-09-13T03:58:31.015Z,98817.41
2022-09-13T03:59:33.410Z,98816.03
2022-09-13T04:00:35.714Z,98798.88
2022-09-13T04:01:38.032Z,98811.88
2022-09-13T04:02:41.410Z,98818.41
2022-09-13T04:03:43.674Z,98813.41
2022-09-13T04:04:46.993Z,98823.75
2022-09-13T04:05:50.164Z,98825.09
2022-09-13T04:06:52.704Z,98823.50
2022-09-13T04:07:54.971Z,98820.97
2022-09-13T04:08:57.648Z,98831.50
2022-09-13T04:09:59.902Z,98836.06
2022-09-13T04:11:02.323Z,98839.63
2022-09-13T04:12:04.819Z,98843.88
2022-09-13T04:13:07.087Z,98841.56
2022-09-13T04:14:10.591Z,98835.00
2022-09-13T04:15:12.782Z,98829.53
2022-09-13T04:16:15.249Z,98836.25
2022-09-13T04:17:17.556Z,98841.25
2022-09-13T04:18:20.009Z,98845.25
2022-09-13T04:19:24.165Z,98836.56
2022-09-13T04:20:26.487Z,98836.47
2022-09-13T04:21:28.625Z,98829.78
2022-09-13T04:22:31.399Z,98843.94
2022-09-13T04:23:33.881Z,98843.41
2022-09-13T04:24:36.471Z,98838.16
2022-09-13T04:25:40.533Z,98844.59
2022-09-13T04:26:43.035Z,98853.16
2022-09-13T04:27:45.261Z,98843.97
2022-09-13T04:28:47.602Z,98847.72
2022-09-13T04:29:49.904Z,98845.56
2022-09-13T04:30:52.069Z,98848.00
2022-09-13T04:31:55.708Z,98846.31
2022-09-13T04:32:59.509Z,98837.06
2022-09-13T04:34:01.824Z,98840.22
2022-09-13T04:35:04.300Z,98839.59
2022-09-13T04:36:06.928Z,98844.78
2022-09-13T04:37:09.216Z,98837.44
2022-09-13T04:38:11.429Z,98837.44
2022-09-13T04:39:16.812Z,98846.88
2022-09-13T04:40:19.118Z,98847.78
2022-09-13T04:41:21.344Z,98854.31
2022-09-13T04:42:23.564Z,98849.13
2022-09-13T04:43:25.781Z,98844.47
2022-09-13T04:44:28.024Z,98851.88
2022-09-13T04:45:30.247Z,98844.84
2022-09-13T04:46:32.569Z,98849.16
2022-09-13T04:47:34.778Z,98847.72
2022-09-13T04:48:37.675Z,98841.88
2022-09-13T04:49:39.986Z,98842.72
2022-09-13T04:50:42.544Z,98839.50
2022-09-13T04:51:44.837Z,98827.69
2022-09-13T04:52:47.279Z,98836.06
2022-09-13T04:53:55.186Z,98834.00
2022-09-13T04:55:01.374Z,98826.31
2022-09-13T04:56:07.621Z,98835.72
2022-09-13T04:57:09.934Z,98844.66
2022-09-13T04:58:12.147Z,98853.34
2022-09-13T04:59:14.567Z,98849.94
2022-09-13T05:00:16.937Z,98842.22
2022-09-13T05:01:19.449Z,98850.50
2022-09-13T05:02:21.896Z,98849.28
2022-09-13T05:03:24.136Z,98849.56
2022-09-13T05:04:26.458Z,98848.72
2022-09-13T05:05:29.218Z,98853.81
2022-09-13T05:06:31.506Z,98854.78
2022-09-13T05:07:33.894Z,98861.97
2022-09-13T05:08:37.398Z,98855.78
2022-09-13T05:09:39.600Z,98848.38
2022-09-13T05:10:41.802Z,98861.19
2022-09-13T05:11:44.142Z,98862.81
2022-09-13T05:12:46.500Z,98865.63
2022-09-13T05:13:52.971Z,98869.94
2022-09-13T05:14:55.182Z,98868.66
2022-09-13T05:15:58.739Z,98868.78
2022-09-13T05:17:01.002Z,98862.81
2022-09-13T05:18:03.326Z,98854.13
2022-09-13T05:19:05.576Z,98860.69
2022-09-13T05:20:08.278Z,98856.72
2022-09-13T05:21:10.530Z,98854.50
2022-09-13T05:22:12.770Z,98857.78
2022-09-13T05:23:15.073Z,98866.19
2022-09-13T05:24:17.343Z,98855.47
2022-09-13T05:25:22.987Z,98866.34
2022-09-13T05:26:31.193Z,98868.09
2022-09-13T05:27:33.903Z,98869.59
2022-09-13T05:28:37.340Z,98867.56
2022-09-13T05:29:39.684Z,98865.16
2022-09-13T05:30:42.498Z,98859.38
2022-09-13T05:31:45.096Z,98871.00
2022-09-13T05:32:47.432Z,98867.06
2022-09-13T05:33:54.523Z,98870.44
2022-09-13T05:34:56.895Z,98876.78
2022-09-13T05:35:59.339Z,98872.94
2022-09-13T05:37:01.816Z,98868.22
2022-09-13T05:38:04.159Z,98867.28
2022-09-13T05:40:31.191Z,98867.94
2022-09-13T05:41:34.187Z,98860.81
2022-09-13T05:42:36.466Z,98860.44
2022-09-13T05:43:38.737Z,98865.88
2022-09-13T05:44:41.265Z,98867.75
2022-09-13T05:45:43.681Z,98867.09
2022-09-13T05:46:49.617Z,98873.13
2022-09-13T05:47:52.345Z,98878.94
2022-09-13T05:48:58.409Z,98880.81
2022-09-13T05:50:33.146Z,98879.00
2022-09-13T05:51:23.527Z,98878.50
2022-09-13T05:52:25.829Z,98870.56
2022-09-13T05:53:28.022Z,98882.78
2022-09-13T05:54:31.052Z,98876.69
2022-09-13T05:55:34.133Z,98883.28
2022-09-13T05:56:36.456Z,98887.13
2022-09-13T05:57:38.672Z,98884.28
2022-09-13T05:58:45.766Z,98883.63
2022-09-13T05:59:48.078Z,98893.38
2022-09-13T06:00:55.548Z,98889.75
2022-09-13T06:01:58.848Z,98893.84
2022-09-13T06:03:01.465Z,98893.66
2022-09-13T06:04:04.100Z,98905.38
2022-09-13T06:05:07.331Z,98895.81
2022-09-13T06:06:11.109Z,98900.66
2022-09-13T06:07:13.691Z,98899.25
2022-09-13T06:08:16.532Z,98897.06
2022-09-13T06:09:18.776Z,98907.34
2022-09-13T06:10:21.053Z,98905.56
2022-09-13T06:11:25.663Z,98904.88
2022-09-13T06:12:28.306Z,98901.31
2022-09-13T06:13:31.225Z,98904.63
2022-09-13T06:14:34.490Z,98895.00
2022-09-13T06:15:41.293Z,98888.47
2022-09-13T06:16:45.691Z,98894.22
2022-09-13T06:17:50.713Z,98887.72
2022-09-13T06:18:53.388Z,98893.94
2022-09-13T06:19:57.136Z,98884.75
2022-09-13T06:21:02.287Z,98882.47
2022-09-13T06:22:04.973Z,98875.66
2022-09-13T06:23:07.573Z,98885.72
2022-09-13T06:24:10.151Z,98881.94
2022-09-13T06:25:12.788Z,98879.34
2022-09-13T06:26:17.489Z,98866.59
2022-09-13T06:27:20.062Z,98875.34
2022-09-13T06:28:22.933Z,98866.28
2022-09-13T06:29:25.609Z,98874.75
2022-09-13T06:30:28.192Z,98874.19
2022-09-13T06:31:30.775Z,98872.59
2022-09-13T06:32:33.635Z,98851.41
2022-09-13T06:33:38.140Z,98864.53
2022-09-13T06:34:40.731Z,98873.56
2022-09-13T06:35:43.567Z,98856.19
2022-09-13T06:36:46.562Z,98872.63
2022-09-13T06:37:49.242Z,98866.56
2022-09-13T06:38:51.926Z,98865.09
2022-09-13T06:39:54.419Z,98873.66
2022-09-13T06:41:08.564Z,98874.63
2022-09-13T06:42:10.850Z,98871.41
2022-09-13T06:43:15.805Z,98869.13
2022-09-13T06:44:18.208Z,98867.41
2022-09-13T06:45:21.568Z,98871.00
2022-09-13T06:46:25.552Z,98864.34
2022-09-13T06:47:27.869Z,98863.19
2022-09-13T06:48:38.563Z,98861.06
2022-09-13T06:49:40.896Z,98853.66
2022-09-13T06:50:43.335Z,98855.13
2022-09-13T06:51:45.617Z,98860.63
2022-09-13T06:52:47.918Z,98862.19
2022-09-13T06:53:51.990Z,98859.28
2022-09-13T06:54:54.755Z,98851.91
2022-09-13T06:56:01.447Z,98859.47
2022-09-13T06:57:03.802Z,98850.25
2022-09-13T06:58:06.315Z,98851.53
2022-09-13T06:59:10.386Z,98851.88
2022-09-13T07:00:13.411Z,98846.97
2022-09-13T07:01:24.479Z,98839.22
2022-09-13T07:02:26.944Z,98853.00
2022-09-13T07:03:29.798Z,98849.25
2022-09-13T07:04:32.191Z,98847.50
2022-09-13T07:05:34.550Z,98854.44
2022-09-13T07:06:42.487Z,98851.31
2022-09-13T07:07:44.792Z,98847.00
2022-09-13T07:08:48.626Z,98855.31
2022-09-13T07:09:50.944Z,98858.13
2022-09-13T07:10:58.016Z,98855.19
2022-09-13T07:12:00.927Z,98863.00
2022-09-13T07:13:03.265Z,98851.91
2022-09-13T07:14:09.519Z,98861.28
2022-09-13T07:15:11.883Z,98853.78
2022-09-13T07:16:14.518Z,98851.94
2022-09-13T07:17:16.929Z,98851.13
2022-09-13T07:18:19.280Z,98845.59
2022-09-13T07:19:26.865Z,98851.13
2022-09-13T07:20:29.224Z,98844.53
2022-09-13T07:21:32.921Z,98833.72
2022-09-13T07:22:35.510Z,98846.69
2022-09-13T07:23:39.583Z,98838.16
2022-09-13T07:24:41.825Z,98841.47
2022-09-13T07:25:44.212Z,98838.31
2022-09-13T07:26:47.165Z,98836.81
2022-09-13T07:27:49.476Z,98832.66
2022-09-13T07:28:54.651Z,98836.66
2022-09-13T07:29:57.796Z,98834.31
2022-09-13T07:31:14.552Z,98834.69
2022-09-13T07:32:16.805Z,98832.34
2022-09-13T07:33:19.025Z,98838.66
2022-09-13T07:34:23.435Z,98839.16
2022-09-13T07:35:25.662Z,98834.72
2022-09-13T07:36:29.529Z,98842.44
2022-09-13T07:37:31.739Z,98833.94
2022-09-13T07:38:35.680Z,98828.50
2022-09-13T07:39:38.184Z,98834.09
2022-09-13T07:40:40.438Z,98826.78
2022-09-13T07:41:42.978Z,98829.03
2022-09-13T07:42:45.236Z,98832.97
2022-09-13T07:43:47.934Z,98830.91
2022-09-13T07:44:50.359Z,98825.72
2022-09-13T07:45:59.970Z,98832.09
2022-09-13T07:47:02.340Z,98838.19
2022-09-13T07:48:04.656Z,98839.75
2022-09-13T07:49:07.807Z,98832.88
2022-09-13T07:50:10.249Z,98832.03
2022-09-13T07:51:18.269Z,98827.06
2022-09-13T07:52:20.538Z,98835.25
2022-09-13T07:53:22.874Z,98831.66
2022-09-13T07:54:25.240Z,98832.41
2022-09-13T07:55:27.560Z,98822.63
2022-09-13T07:56:32.706Z,98835.06
2022-09-13T07:57:35.094Z,98826.28
2022-09-13T07:58:39.160Z,98838.34
2022-09-13T07:59:41.454Z,98835.41
2022-09-13T08:00:43.780Z,98834.25
2022-09-13T08:01:48.783Z,98828.94
2022-09-13T08:02:51.223Z,98832.69
2022-09-13T08:04:01.586Z,98835.31
2022-09-13T08:05:04.165Z,98837.84
2022-09-13T08:06:07.668Z,98837.59
2022-09-13T08:07:09.978Z,98840.25
2022-09-13T08:08:12.251Z,98840.25
2022-09-13T08:09:15.641Z,98829.88
2022-09-13T08:10:18.066Z,98833.38
2022-09-13T08:11:26.000Z,98840.25
2022-09-13T08:12:28.248Z,98843.22
2022-09-13T08:13:32.964Z,98845.63
2022-09-13T08:14:35.504Z,98843.31
2022-09-13T08:15:37.843Z,98836.44
2022-09-13T08:16:40.571Z,98830.47
2022-09-13T08:17:43.020Z,98832.88
2022-09-13T08:18:47.334Z,98827.81
2022-09-13T08:19:49.632Z,98839.34
2022-09-13T08:20:55.746Z,98839.34
2022-09-13T08:21:58.100Z,98841.50
2022-09-13T08:23:00.356Z,98834.41
2022-09-13T08:24:04.189Z,98838.47
2022-09-13T08:25:06.724Z,98840.78
2022-09-13T08:26:10.579Z,98844.13
2022-09-13T08:27:13.536Z,98849.53
2022-09-13T08:28:18.193Z,98841.31
2022-09-13T08:29:20.506Z,98847.59
2022-09-13T08:30:22.826Z,98845.47
2022-09-13T08:31:26.026Z,98845.16
2022-09-13T08:32:28.370Z,98843.22
2022-09-13T08:33:30.927Z,98838.44
2022-09-13T08:34:33.251Z,98833.50
2022-09-13T08:35:36.119Z,98841.75
2022-09-13T08:36:38.564Z,98836.16
2022-09-13T08:37:40.913Z,98835.69
2022-09-13T08:38:47.717Z,98836.03
2022-09-13T08:39:50.323Z,98832.00
2022-09-13T08:40:59.271Z,98843.78
2022-09-13T08:42:13.817Z,98853.50
2022-09-13T08:43:29.608Z,98846.09
2022-09-13T08:44:47.336Z,98851.66
2022-09-13T08:46:01.522Z,98853.16
2022-09-13T08:47:27.972Z,98846.00
2022-09-13T08:48:36.967Z,98848.03
2022-09-13T08:49:46.731Z,98847.13
2022-09-13T08:50:54.300Z,98849.94
2022-09-13T08:52:01.162Z,98854.50
2022-09-13T08:53:25.324Z,98848.69
2022-09-13T08:54:27.685Z,98849.94
2022-09-13T08:55:32.682Z,98839.50
2022-09-13T08:56:49.312Z,98837.44
2022-09-13T08:58:33.165Z,98837.38
2022-09-13T08:59:51.781Z,98836.28
2022-09-13T09:01:06.443Z,98847.72
2022-09-13T09:02:23.457Z,98841.59
2022-09-13T09:03:41.271Z,98833.19
2022-09-13T09:04:48.608Z,98836.34
2022-09-13T09:05:52.621Z,98831.72
2022-09-13T09:07:08.014Z,98830.00
2022-09-13T09:08:31.206Z,98830.63
2022-09-13T09:09:40.017Z,98831.00
2022-09-13T09:10:50.745Z,98824.91
2022-09-13T09:12:24.641Z,98837.78
2022-09-13T09:13:35.097Z,98837.84
2022-09-13T09:14:44.613Z,98845.38
2022-09-13T09:15:51.422Z,98841.03
2022-09-13T09:16:58.823Z,98838.06
2022-09-13T09:18:14.826Z,98852.22
2022-09-13T09:19:23.168Z,98844.69
2022-09-13T09:20:32.280Z,98840.13
2022-09-13T09:21:34.879Z,98833.41
2022-09-13T09:22:37.294Z,98842.59
2022-09-13T09:23:41.310Z,98843.97
2022-09-13T09:24:49.482Z,98846.25
2022-09-13T09:25:57.337Z,98840.56
2022-09-13T09:27:02.471Z,98843.41
2022-09-13T09:28:13.393Z,98839.06
2022-09-13T09:29:26.546Z,98840.91
2022-09-13T09:30:46.170Z,98840.66
2022-09-13T09:32:09.424Z,98832.59
2022-09-13T09:33:50.087Z,98844.88
2022-09-13T09:35:17.740Z,98847.91
2022-09-13T09:36:42.063Z,98852.66
2022-09-13T09:37:50.949Z,98837.13
2022-09-13T09:38:53.356Z,98849.25
2022-09-13T09:40:05.380Z,98853.94
2022-09-13T09:41:16.133Z,98850.03
2022-09-13T09:42:25.561Z,98850.09
2022-09-13T09:43:33.886Z,98857.53
2022-09-13T09:44:39.904Z,98858.25
2022-09-13T09:45:44.964Z,98869.69
2022-09-13T09:47:01.027Z,98862.47
2022-09-13T09:48:12.206Z,98856.41
2022-09-13T09:49:45.727Z,98870.78
2022-09-13T09:50:52.593Z,98860.66
2022-09-13T09:51:56.473Z,98868.94
2022-09-13T09:53:26.922Z,98857.91
2022-09-13T09:54:30.359Z,98859.31
2022-09-13T09:55:37.843Z,98863.03
2022-09-13T09:56:53.399Z,98847.38
2022-09-13T09:58:06.259Z,98858.56
2022-09-13T09:59:26.743Z,98852.56
2022-09-13T10:00:32.173Z,98851.31
2022-09-13T10:01:37.760Z,98845.28
2022-09-13T10:02:44.769Z,98840.72
2022-09-13T10:03:54.421Z,98850.63
2022-09-13T10:04:59.688Z,98843.34
2022-09-13T10:06:09.254Z,98843.25
2022-09-13T10:07:27.304Z,98850.88
2022-09-13T10:08:33.107Z,98848.72
2022-09-13T10:09:37.804Z,98849.13
2022-09-13T10:10:45.197Z,98847.03
2022-09-13T10:11:56.381Z,98848.03
2022-09-13T10:12:59.675Z,98850.44
2022-09-13T10:14:03.214Z,98840.66
2022-09-13T10:15:06.003Z,98848.78
2022-09-13T10:16:29.220Z,98851.66
2022-09-13T10:17:31.819Z,98859.56
2022-09-13T10:18:44.831Z,98846.22
2022-09-13T10:19:56.109Z,98856.88
2022-09-13T10:21:08.094Z,98849.78
2022-09-13T10:22:12.940Z,98848.28
2022-09-13T10:23:15.124Z,98851.50
2022-09-13T10:24:21.286Z,98854.84
2022-09-13T10:25:29.543Z,98850.16
2022-09-13T10:26:34.034Z,98855.66
2022-09-13T10:27:39.882Z,98842.06
2022-09-13T10:28:49.860Z,98851.03
2022-09-13T10:29:56.717Z,98845.09
2022-09-13T10:31:08.887Z,98849.94
2022-09-13T10:32:12.939Z,98839.66
2022-09-13T10:33:40.024Z,98836.13
2022-09-13T10:34:44.923Z,98833.66
2022-09-13T10:35:53.698Z,98834.16
2022-09-13T10:37:04.288Z,98832.53
2022-09-13T10:38:24.184Z,98843.41
2022-09-13T10:39:29.876Z,98838.34
2022-09-13T10:40:34.448Z,98838.38
2022-09-13T10:41:39.767Z,98827.28
2022-09-13T10:42:53.031Z,98833.69
2022-09-13T10:44:09.039Z,98840.47
2022-09-13T10:45:23.608Z,98838.31
2022-09-13T10:46:29.086Z,98835.53
2022-09-13T10:47:44.343Z,98848.22
2022-09-13T10:48:55.721Z,98845.63
2022-09-13T10:49:59.468Z,98852.41
2022-09-13T10:51:06.250Z,98845.28
2022-09-13T10:52:32.164Z,98855.03
2022-09-13T10:53:39.883Z,98853.56
2022-09-13T10:54:42.167Z,98869.19
2022-09-13T10:55:54.053Z,98862.97
2022-09-13T10:56:56.530Z,98859.06
2022-09-13T10:58:01.445Z,98859.97
2022-09-13T10:59:15.713Z,98855.38
2022-09-13T11:00:32.357Z,98857.72
2022-09-13T11:01:40.975Z,98852.66
2022-09-13T11:03:21.468Z,98851.81
2022-09-13T11:04:49.757Z,98867.50
2022-09-13T11:06:24.463Z,98869.31
2022-09-13T11:08:05.395Z,98857.78
2022-09-13T11:09:17.328Z,98854.63
2022-09-13T11:10:38.315Z,98860.53
2022-09-13T11:11:40.534Z,98855.09
2022-09-13T11:13:20.169Z,98859.91
2022-09-13T11:14:25.170Z,98858.13
2022-09-13T11:15:40.822Z,98855.03
2022-09-13T11:17:13.689Z,98855.72
2022-09-13T11:18:18.599Z,98857.03
2022-09-13T11:19:39.281Z,98860.38
2022-09-13T11:21:15.826Z,98855.53
2022-09-13T11:22:39.623Z,98851.47
2022-09-13T11:24:22.877Z,98856.81
2022-09-13T11:25:31.054Z,98850.16
2022-09-13T11:26:51.488Z,98847.69
2022-09-13T11:28:14.793Z,98838.78
2022-09-13T11:29:45.679Z,98843.53
2022-09-13T11:30:47.875Z,98832.53
2022-09-13T11:32:21.483Z,98829.50
2022-09-13T11:33:52.094Z,98840.19
2022-09-13T11:35:20.084Z,98836.66
2022-09-13T11:36:36.433Z,98827.34
2022-09-13T11:38:04.779Z,98831.59
2022-09-13T11:39:13.431Z,98822.06
2022-09-13T11:40:28.919Z,98819.88
2022-09-13T11:42:23.514Z,98822.53
2022-09-13T11:43:40.701Z,98827.38
2022-09-13T11:45:02.030Z,98823.06
2022-09-13T11:46:15.000Z,98815.34
2022-09-13T11:47:33.434Z,98826.94
2022-09-13T11:48:44.871Z,98815.53
2022-09-13T11:49:58.995Z,98829.16
2022-09-13T11:51:25.198Z,98831.94
2022-09-13T11:52:39.574Z,98827.16
2022-09-13T11:54:06.769Z,98824.69
2022-09-13T11:55:21.059Z,98821.03
2022-09-13T11:56:44.701Z,98825.03
2022-09-13T11:57:55.911Z,98819.59
2022-09-13T11:59:15.657Z,98821.31
2022-09-13T12:00:23.755Z,98818.47
2022-09-13T12:01:40.250Z,98807.91
2022-09-13T12:02:44.498Z,98805.34
2022-09-13T12:03:55.380Z,98792.44
2022-09-13T12:05:22.556Z,98788.28
2022-09-13T12:06:30.222Z,98791.84
2022-09-13T12:07:43.696Z,98792.19
2022-09-13T12:08:52.829Z,98795.03
2022-09-13T12:10:08.406Z,98790.28
2022-09-13T12:11:27.730Z,98795.09
2022-09-13T12:12:34.326Z,98787.03
2022-09-13T12:13:45.777Z,98783.09
2022-09-13T12:14:59.851Z,98780.97
2022-09-13T12:16:08.497Z,98774.53
2022-09-13T12:17:36.207Z,98773.94
2022-09-13T12:18:48.105Z,98773.41
2022-09-13T12:19:54.938Z,98773.56
2022-09-13T12:21:09.255Z,98772.19
2022-09-13T12:22:13.096Z,98756.06
2022-09-13T12:23:20.976Z,98764.13
2022-09-13T12:24:40.172Z,98754.22
2022-09-13T12:25:50.413Z,98758.28
2022-09-13T12:27:10.598Z,98755.59
2022-09-13T12:28:27.975Z,98746.31
2022-09-13T12:29:51.776Z,98762.06
2022-09-13T12:31:02.492Z,98744.03
2022-09-13T12:32:06.923Z,98748.03
2022-09-13T12:33:09.384Z,98745.00
2022-09-13T12:34:21.219Z,98757.78
2022-09-13T12:36:01.818Z,98753.00
2022-09-13T12:37:07.517Z,98756.53
2022-09-13T12:38:40.950Z,98755.41
2022-09-13T12:40:10.287Z,98746.75
2022-09-13T12:41:34.358Z,98750.88
2022-09-13T12:43:08.042Z,98736.56
2022-09-13T12:44:33.446Z,98742.41
2022-09-13T12:45:46.586Z,98732.22
2022-09-13T12:47:47.705Z,98729.91
2022-09-13T12:48:59.303Z,98722.78
2022-09-13T12:52:01.723Z,98730.78
2022-09-13T12:53:09.845Z,98735.09
2022-09-13T12:54:21.830Z,98731.50
2022-09-13T12:55:51.854Z,98724.56
2022-09-13T12:57:26.139Z,98719.00
2022-09-13T12:58:34.780Z,98731.28
2022-09-13T12:59:58.377Z,98728.91
2022-09-13T13:01:15.760Z,98718.84
2022-09-13T13:02:41.020Z,98716.09
2022-09-13T13:04:10.128Z,98730.56
2022-09-13T13:05:28.623Z,98721.53
2022-09-13T13:06:54.349Z,98730.16
2022-09-13T13:08:05.979Z,98722.75
2022-09-13T13:09:42.336Z,98721.44
2022-09-13T13:10:44.672Z,98714.25
2022-09-13T13:11:48.766Z,98720.22
2022-09-13T13:12:51.101Z,98722.81
2022-09-13T13:13:59.104Z,98721.25
2022-09-13T13:15:17.956Z,98708.97
2022-09-13T13:16:35.561Z,98704.94
2022-09-13T13:17:37.830Z,98702.53
2022-09-13T13:18:40.161Z,98706.84
2022-09-13T13:19:43.751Z,98703.84
2022-09-13T13:20:51.813Z,98699.34
2022-09-13T13:21:54.695Z,98702.69
2022-09-13T13:23:15.366Z,98690.56
2022-09-13T13:24:18.786Z,98700.09
2022-09-13T13:25:33.184Z,98694.03
2022-09-13T13:26:49.296Z,98701.44
2022-09-13T13:27:55.154Z,98709.03
2022-09-13T13:29:03.745Z,98705.09
2022-09-13T13:30:43.050Z,98702.22
2022-09-13T13:31:57.396Z,98702.78
2022-09-13T13:33:13.596Z,98691.91
2022-09-13T13:34:16.541Z,98695.00
2022-09-13T13:35:32.507Z,98694.47
2022-09-13T13:36:40.911Z,98688.31
2022-09-13T13:37:43.924Z,98700.69
2022-09-13T13:38:48.869Z,98688.41
2022-09-13T13:40:12.743Z,98688.31
2022-09-13T13:41:41.430Z,98676.31